KGYB

Giddings-Lee County Airport

Giddings, Texas, USA
METAR KGYB 210355Z AUTO 19004KT 10SM CLR 30/22 A3002 RMK AO2 T02950215
Observed Flight Rules
Aug-21 @ 03:55 UTC (15 minutes ago) Visual Flight Rules
Wind Visibility Clouds
190° at 4 knots 10 miles
  • Clear skies
Temperatures Readings
Current 30°C / 86°F
Dewpoint 22°C / 72°F
Humidity 62%
Altimeter 30.02" Hg
Pressure 1017 hPa
Elevation 148
METAR KGYB 210355Z AUTO 19004KT 10SM CLR 30/22 A3002 RMK AO2 T02950215
Observed Flight Rules
Aug-21 @ 03:55 UTC
(15 minutes ago)
VFR
Wind Visibility
190° at 4 knots 10 miles
Clouds
  • Clear skies
Temperature Dewpoint
30°C / 86°F 22°C / 72°F
Humidity Altimeter Pressure
62% 30.02" Hg 1017 hPa